Wetterdaten: Woche 22.05.17 - 28.05.17 (KW21)
Datum Zeit Temp. A. Feuchte A. Luftdruck Regen Wind Richtung Taupunkt Windchill Windben
22.05.2017 00:00 9,9 C 83 % 1020,8 hPa 0,0 l/m 0,0 km/h (0 Bft) W-SW 7,2 C 9,9 C 0,2 km/h (0 Bft)
22.05.2017 01:00 8,4 C 86 % 1020,3 hPa 0,0 l/m 0,0 km/h (0 Bft) W-SW 6,3 C 8,4 C 0,0 km/h (0 Bft)
22.05.2017 02:00 7,1 C 89 % 1019,8 hPa 0,0 l/m 0,0 km/h (0 Bft) W-SW 5,5 C 7,1 C 0,0 km/h (0 Bft)
22.05.2017 03:00 6,3 C 92 % 1019,6 hPa 0,0 l/m 0,0 km/h (0 Bft) W-SW 5,1 C 6,3 C 0,0 km/h (0 Bft)
22.05.2017 04:00 5,8 C 93 % 1019,1 hPa 0,0 l/m 0,0 km/h (0 Bft) W-SW 4,7 C 5,8 C 0,0 km/h (0 Bft)
22.05.2017 05:00 5,1 C 93 % 1018,9 hPa 0,0 l/m 0,0 km/h (0 Bft) W-SW 4,1 C 5,1 C 0,0 km/h (0 Bft)
22.05.2017 06:00 4,9 C 94 % 1019,0 hPa 0,0 l/m 0,0 km/h (0 Bft) W-SW 4,0 C 4,9 C 0,0 km/h (0 Bft)
22.05.2017 07:00 7,5 C 91 % 1019,0 hPa 0,0 l/m 0,0 km/h (0 Bft) W-SW 6,1 C 7,5 C 0,0 km/h (0 Bft)
22.05.2017 08:00 13,1 C 75 % 1018,7 hPa 0,0 l/m 0,7 km/h (0 Bft) W-NW 8,8 C 13,1 C 2,5 km/h (1 Bft)
22.05.2017 09:00 15,7 C 66 % 1018,5 hPa 0,0 l/m 3,4 km/h (1 Bft) NW 9,2 C 15,7 C 8,8 km/h (2 Bft)
22.05.2017 10:00 17,2 C 61 % 1018,2 hPa 0,0 l/m 3,3 km/h (1 Bft) NW 9,5 C 17,2 C 7,6 km/h (2 Bft)
22.05.2017 11:00 18,5 C 55 % 1018,0 hPa 0,0 l/m 3,1 km/h (1 Bft) NW 9,3 C 18,5 C 6,9 km/h (2 Bft)
22.05.2017 12:00 19,1 C 52 % 1017,7 hPa 0,0 l/m 2,5 km/h (1 Bft) NW 9,1 C 19,1 C 5,2 km/h (1 Bft)
22.05.2017 13:00 20,9 C 48 % 1017,0 hPa 0,0 l/m 3,6 km/h (1 Bft) NO 9,5 C 20,9 C 8,3 km/h (2 Bft)
22.05.2017 14:00 22,3 C 45 % 1016,5 hPa 0,0 l/m 3,5 km/h (1 Bft) NW 9,7 C 22,3 C 9,0 km/h (2 Bft)
22.05.2017 15:00 23,2 C 39 % 1016,0 hPa 0,0 l/m 3,5 km/h (1 Bft) NO 8,4 C 23,2 C 9,3 km/h (2 Bft)
22.05.2017 16:00 23,9 C 32 % 1015,7 hPa 0,0 l/m 4,0 km/h (1 Bft) NO 6,2 C 23,9 C 11,3 km/h (2 Bft)
22.05.2017 17:00 23,9 C 35 % 1015,3 hPa 0,0 l/m 3,6 km/h (1 Bft) O-NO 7,6 C 23,9 C 8,2 km/h (2 Bft)
22.05.2017 18:00 23,4 C 35 % 1015,1 hPa 0,0 l/m 3,3 km/h (1 Bft) O 7,2 C 23,4 C 6,6 km/h (2 Bft)
22.05.2017 19:00 21,6 C 37 % 1015,1 hPa 0,0 l/m 2,3 km/h (1 Bft) O 6,3 C 21,6 C 6,3 km/h (2 Bft)
22.05.2017 20:00 19,0 C 56 % 1015,3 hPa 0,0 l/m 0,8 km/h (0 Bft) SW 10,0 C 19,0 C 2,8 km/h (1 Bft)
22.05.2017 21:00 15,9 C 68 % 1015,8 hPa 0,0 l/m 0,0 km/h (0 Bft) SW 10,1 C 15,9 C 0,7 km/h (0 Bft)
22.05.2017 22:00 13,3 C 79 % 1016,3 hPa 0,0 l/m 0,0 km/h (0 Bft) SW 9,7 C 13,3 C 0,0 km/h (0 Bft)
22.05.2017 23:00 11,7 C 85 % 1016,4 hPa 0,0 l/m 0,0 km/h (0 Bft) SW 9,1 C 11,7 C 0,0 km/h (0 Bft)
23.05.2017 00:00 10,5 C 88 % 1016,6 hPa 0,0 l/m 0,0 km/h (0 Bft) SW 8,6 C 10,5 C 0,0 km/h (0 Bft)
23.05.2017 01:00 9,8 C 90 % 1016,6 hPa 0,0 l/m 0,0 km/h (0 Bft) SW 8,2 C 9,8 C 0,0 km/h (0 Bft)
23.05.2017 02:00 9,6 C 91 % 1016,6 hPa 0,0 l/m 0,0 km/h (0 Bft) SW 8,2 C 9,6 C 0,0 km/h (0 Bft)
23.05.2017 03:00 9,3 C 92 % 1016,5 hPa 0,0 l/m 0,0 km/h (0 Bft) SW 8,0 C 9,3 C 0,0 km/h (0 Bft)
23.05.2017 04:00 8,9 C 92 % 1016,6 hPa 0,0 l/m 0,0 km/h (0 Bft) SW 7,8 C 8,9 C 0,0 km/h (0 Bft)
23.05.2017 05:00 8,8 C 93 % 1016,7 hPa 0,0 l/m 0,0 km/h (0 Bft) N 7,8 C 8,8 C 0,0 km/h (0 Bft)
23.05.2017 06:00 9,2 C 93 % 1016,7 hPa 0,0 l/m 0,0 km/h (0 Bft) SW 8,1 C 9,2 C 0,0 km/h (0 Bft)
23.05.2017 07:00 10,4 C 92 % 1017,1 hPa 0,0 l/m 0,0 km/h (0 Bft) SW 9,1 C 10,4 C 0,0 km/h (0 Bft)
23.05.2017 08:00 13,4 C 86 % 1017,5 hPa 0,0 l/m 0,0 km/h (0 Bft) SW 11,0 C 13,4 C 0,4 km/h (0 Bft)
23.05.2017 09:00 17,9 C 66 % 1017,8 hPa 0,0 l/m 3,9 km/h (1 Bft) O-NO 11,4 C 17,9 C 11,1 km/h (2 Bft)
23.05.2017 10:00 19,9 C 58 % 1017,8 hPa 0,0 l/m 6,7 km/h (2 Bft) O-NO 11,4 C 19,6 C 16,0 km/h (3 Bft)
23.05.2017 11:00 21,3 C 53 % 1018,0 hPa 0,0 l/m 6,0 km/h (2 Bft) O-NO 11,3 C 21,2 C 13,9 km/h (3 Bft)
23.05.2017 12:00 22,0 C 49 % 1018,0 hPa 0,0 l/m 6,3 km/h (2 Bft) O-NO 10,7 C 21,7 C 13,6 km/h (3 Bft)
23.05.2017 13:00 22,8 C 47 % 1017,7 hPa 0,0 l/m 5,6 km/h (2 Bft) NO 10,8 C 22,8 C 15,0 km/h (3 Bft)
23.05.2017 14:00 23,7 C 43 % 1017,6 hPa 0,0 l/m 5,7 km/h (2 Bft) NO 10,4 C 23,7 C 15,6 km/h (3 Bft)
23.05.2017 15:00 23,8 C 46 % 1017,7 hPa 0,0 l/m 5,7 km/h (2 Bft) O-NO 11,4 C 23,7 C 15,2 km/h (3 Bft)
23.05.2017 16:00 23,2 C 47 % 1017,8 hPa 0,0 l/m 4,4 km/h (1 Bft) O-NO 11,2 C 23,2 C 12,9 km/h (3 Bft)
23.05.2017 17:00 22,8 C 48 % 1018,1 hPa 0,0 l/m 4,5 km/h (1 Bft) O-NO 11,2 C 22,8 C 10,9 km/h (2 Bft)
23.05.2017 18:00 22,3 C 50 % 1017,9 hPa 0,0 l/m 3,7 km/h (1 Bft) O-NO 11,2 C 22,3 C 9,7 km/h (2 Bft)
23.05.2017 19:00 21,4 C 54 % 1018,1 hPa 0,0 l/m 3,3 km/h (1 Bft) NO 11,7 C 21,4 C 9,0 km/h (2 Bft)
23.05.2017 20:00 20,4 C 58 % 1018,4 hPa 0,0 l/m 1,6 km/h (1 Bft) O 11,8 C 20,4 C 5,8 km/h (2 Bft)
23.05.2017 21:00 18,7 C 65 % 1019,0 hPa 0,0 l/m 1,0 km/h (0 Bft) O 12,0 C 18,7 C 4,5 km/h (1 Bft)
23.05.2017 22:00 17,5 C 67 % 1019,7 hPa 0,0 l/m 1,7 km/h (1 Bft) S-SO 11,3 C 17,5 C 7,0 km/h (2 Bft)
23.05.2017 23:00 16,6 C 68 % 1020,2 hPa 0,0 l/m 0,8 km/h (0 Bft) S 10,6 C 16,6 C 3,9 km/h (1 Bft)
24.05.2017 00:00 15,7 C 73 % 1020,5 hPa 0,0 l/m 1,0 km/h (0 Bft) S-SO 10,9 C 15,7 C 4,0 km/h (1 Bft)
24.05.2017 01:00 14,9 C 78 % 1020,3 hPa 0,0 l/m 0,7 km/h (0 Bft) O 11,2 C 14,9 C 3,5 km/h (1 Bft)
24.05.2017 02:00 13,3 C 84 % 1020,5 hPa 0,0 l/m 0,2 km/h (0 Bft) O 10,7 C 13,3 C 0,7 km/h (0 Bft)
24.05.2017 03:00 12,5 C 88 % 1020,8 hPa 0,0 l/m 0,1 km/h (0 Bft) O 10,6 C 12,5 C 0,5 km/h (0 Bft)
24.05.2017 04:00 12,4 C 86 % 1021,1 hPa 0,0 l/m 0,2 km/h (0 Bft) O 10,1 C 12,4 C 1,5 km/h (1 Bft)
24.05.2017 05:00 12,1 C 75 % 1021,5 hPa 0,0 l/m 0,2 km/h (0 Bft) S 7,8 C 12,1 C 1,4 km/h (1 Bft)
24.05.2017 06:00 11,9 C 74 % 1021,8 hPa 0,0 l/m 0,6 km/h (0 Bft) S 7,4 C 11,9 C 2,0 km/h (1 Bft)
24.05.2017 07:00 13,2 C 69 % 1022,2 hPa 0,0 l/m 0,9 km/h (0 Bft) N-NW 7,5 C 13,2 C 3,6 km/h (1 Bft)
24.05.2017 08:00 14,8 C 62 % 1022,7 hPa 0,0 l/m 2,1 km/h (1 Bft) SW 7,6 C 14,8 C 6,7 km/h (2 Bft)
24.05.2017 09:00 16,3 C 55 % 1022,6 hPa 0,0 l/m 2,9 km/h (1 Bft) NW 7,2 C 16,3 C 7,3 km/h (2 Bft)
24.05.2017 10:00 17,7 C 51 % 1022,4 hPa 0,0 l/m 2,9 km/h (1 Bft) W 7,5 C 17,7 C 7,2 km/h (2 Bft)
24.05.2017 11:00 18,8 C 48 % 1022,4 hPa 0,0 l/m 3,3 km/h (1 Bft) NO 7,6 C 18,8 C 7,6 km/h (2 Bft)
24.05.2017 12:00 19,5 C 48 % 1022,0 hPa 0,0 l/m 3,6 km/h (1 Bft) NW 8,1 C 19,5 C 8,1 km/h (2 Bft)
24.05.2017 13:00 20,7 C 46 % 1021,4 hPa 0,0 l/m 4,0 km/h (1 Bft) S-SW 8,7 C 20,7 C 9,2 km/h (2 Bft)
24.05.2017 14:00 21,7 C 43 % 1021,1 hPa 0,0 l/m 2,7 km/h (1 Bft) O-NO 8,5 C 21,7 C 8,6 km/h (2 Bft)
24.05.2017 15:00 20,5 C 46 % 1021,0 hPa 0,0 l/m 1,6 km/h (1 Bft) O-NO 8,4 C 20,5 C 4,4 km/h (1 Bft)
24.05.2017 16:00 20,3 C 49 % 1020,9 hPa 0,0 l/m 2,0 km/h (1 Bft) N-NW 9,3 C 20,3 C 5,2 km/h (1 Bft)
24.05.2017 17:00 19,9 C 52 % 1020,8 hPa 0,0 l/m 2,0 km/h (1 Bft) N-NO 9,8 C 19,9 C 5,5 km/h (2 Bft)
24.05.2017 18:00 19,7 C 53 % 1020,7 hPa 0,0 l/m 3,0 km/h (1 Bft) NW 9,9 C 19,7 C 6,9 km/h (2 Bft)
24.05.2017 19:00 19,3 C 55 % 1020,7 hPa 0,0 l/m 1,4 km/h (1 Bft) N-NW 10,0 C 19,3 C 5,2 km/h (1 Bft)
24.05.2017 20:00 18,4 C 58 % 1021,0 hPa 0,0 l/m 0,7 km/h (0 Bft) O-SO 9,9 C 18,4 C 3,1 km/h (1 Bft)
24.05.2017 21:00 16,7 C 67 % 1021,2 hPa 0,0 l/m 0,2 km/h (0 Bft) O-SO 10,4 C 16,7 C 0,9 km/h (0 Bft)
24.05.2017 22:00 15,5 C 74 % 1021,5 hPa 0,0 l/m 0,1 km/h (0 Bft) O-SO 10,9 C 15,5 C 0,8 km/h (0 Bft)
24.05.2017 23:00 15,1 C 75 % 1021,5 hPa 0,0 l/m 0,2 km/h (0 Bft) O-SO 10,7 C 15,1 C 1,3 km/h (1 Bft)
25.05.2017 00:00 14,1 C 79 % 1021,4 hPa 0,0 l/m 0,0 km/h (0 Bft) O-SO 10,4 C 14,1 C 0,2 km/h (0 Bft)
25.05.2017 01:00 12,2 C 85 % 1021,3 hPa 0,0 l/m 0,0 km/h (0 Bft) O-SO 9,7 C 12,2 C 0,5 km/h (0 Bft)
25.05.2017 02:00 11,4 C 87 % 1021,0 hPa 0,0 l/m 0,0 km/h (0 Bft) O-SO 9,3 C 11,4 C 0,4 km/h (0 Bft)
25.05.2017 03:00 10,9 C 90 % 1020,7 hPa 0,0 l/m 0,0 km/h (0 Bft) O-SO 9,2 C 10,9 C 0,1 km/h (0 Bft)
25.05.2017 04:00 11,1 C 89 % 1020,4 hPa 0,0 l/m 0,0 km/h (0 Bft) O-SO 9,4 C 11,1 C 0,0 km/h (0 Bft)
25.05.2017 05:00 10,4 C 91 % 1020,4 hPa 0,0 l/m 0,0 km/h (0 Bft) O-SO 9,0 C 10,4 C 0,0 km/h (0 Bft)
25.05.2017 06:00 10,1 C 92 % 1020,5 hPa 0,0 l/m 0,0 km/h (0 Bft) O-SO 8,8 C 10,1 C 0,2 km/h (0 Bft)
25.05.2017 07:00 12,0 C 90 % 1020,4 hPa 0,0 l/m 0,2 km/h (0 Bft) O-SO 10,3 C 12,0 C 1,3 km/h (1 Bft)
25.05.2017 08:00 15,4 C 78 % 1020,5 hPa 0,0 l/m 1,2 km/h (1 Bft) O-SO 11,7 C 15,4 C 3,5 km/h (1 Bft)
25.05.2017 09:00 17,3 C 71 % 1020,7 hPa 0,0 l/m 3,1 km/h (1 Bft) S-SW 11,9 C 17,3 C 7,6 km/h (2 Bft)
25.05.2017 10:00 17,9 C 65 % 1020,8 hPa 0,0 l/m 2,5 km/h (1 Bft) W-NW 11,1 C 17,9 C 6,3 km/h (2 Bft)
25.05.2017 11:00 19,3 C 53 % 1020,8 hPa 0,0 l/m 4,4 km/h (1 Bft) NW 9,6 C 19,3 C 10,3 km/h (2 Bft)
25.05.2017 12:00 20,0 C 50 % 1020,6 hPa 0,0 l/m 3,1 km/h (1 Bft) NW 9,2 C 20,0 C 7,0 km/h (2 Bft)
25.05.2017 13:00 20,4 C 48 % 1020,2 hPa 0,0 l/m 3,3 km/h (1 Bft) SO 9,1 C 20,4 C 10,1 km/h (2 Bft)
25.05.2017 14:00 21,1 C 47 % 1019,9 hPa 0,0 l/m 4,4 km/h (1 Bft) S-SW 9,4 C 21,1 C 11,1 km/h (2 Bft)
25.05.2017 15:00 21,7 C 46 % 1019,5 hPa 0,0 l/m 5,0 km/h (1 Bft) W 9,6 C 21,6 C 12,9 km/h (3 Bft)
25.05.2017 16:00 21,9 C 44 % 1019,2 hPa 0,0 l/m 4,6 km/h (1 Bft) NW 9,2 C 21,8 C 12,9 km/h (3 Bft)
25.05.2017 17:00 21,2 C 45 % 1019,2 hPa 0,0 l/m 4,7 km/h (1 Bft) NW 8,7 C 21,1 C 10,3 km/h (2 Bft)
25.05.2017 18:00 20,6 C 47 % 1019,2 hPa 0,0 l/m 5,1 km/h (1 Bft) W 8,7 C 20,5 C 12,1 km/h (2 Bft)
25.05.2017 19:00 19,0 C 50 % 1019,2 hPa 0,0 l/m 3,4 km/h (1 Bft) NW 8,4 C 19,0 C 9,7 km/h (2 Bft)
25.05.2017 20:00 17,8 C 55 % 1019,2 hPa 0,0 l/m 2,7 km/h (1 Bft) W 8,6 C 17,8 C 8,0 km/h (2 Bft)
25.05.2017 21:00 15,9 C 63 % 1019,4 hPa 0,0 l/m 0,3 km/h (0 Bft) W 8,8 C 15,9 C 1,2 km/h (1 Bft)
25.05.2017 22:00 13,0 C 74 % 1019,8 hPa 0,0 l/m 0,1 km/h (0 Bft) W 8,5 C 13,0 C 0,3 km/h (0 Bft)
25.05.2017 23:00 11,0 C 82 % 1019,9 hPa 0,0 l/m 0,0 km/h (0 Bft) W 8,0 C 11,0 C 0,0 km/h (0 Bft)
26.05.2017 00:00 9,9 C 86 % 1019,8 hPa 0,0 l/m 0,0 km/h (0 Bft) W 7,6 C 9,9 C 0,0 km/h (0 Bft)
26.05.2017 01:00 8,9 C 89 % 1019,5 hPa 0,0 l/m 0,0 km/h (0 Bft) W 7,1 C 8,9 C 0,0 km/h (0 Bft)
26.05.2017 02:00 8,1 C 91 % 1019,2 hPa 0,0 l/m 0,0 km/h (0 Bft) W 6,7 C 8,1 C 0,0 km/h (0 Bft)
26.05.2017 03:00 7,4 C 92 % 1019,1 hPa 0,0 l/m 0,0 km/h (0 Bft) W 6,2 C 7,4 C 0,0 km/h (0 Bft)
26.05.2017 04:00 6,9 C 93 % 1019,2 hPa 0,0 l/m 0,0 km/h (0 Bft) W 5,9 C 6,9 C 0,0 km/h (0 Bft)
26.05.2017 05:00 6,3 C 94 % 1019,3 hPa 0,0 l/m 0,0 km/h (0 Bft) W 5,4 C 6,3 C 0,0 km/h (0 Bft)
26.05.2017 06:00 6,1 C 94 % 1019,3 hPa 0,0 l/m 0,0 km/h (0 Bft) W 5,3 C 6,1 C 0,0 km/h (0 Bft)
26.05.2017 07:00 8,8 C 93 % 1019,5 hPa 0,0 l/m 0,2 km/h (0 Bft) W 7,7 C 8,8 C 0,9 km/h (0 Bft)
26.05.2017 08:00 14,8 C 75 % 1019,4 hPa 0,0 l/m 2,6 km/h (1 Bft) NW 10,4 C 14,8 C 6,7 km/h (2 Bft)
26.05.2017 09:00 17,4 C 64 % 1019,6 hPa 0,0 l/m 3,9 km/h (1 Bft) NW 10,4 C 17,4 C 10,6 km/h (2 Bft)
26.05.2017 10:00 18,9 C 56 % 1019,5 hPa 0,0 l/m 5,6 km/h (2 Bft) NW 9,9 C 18,8 C 14,8 km/h (3 Bft)
26.05.2017 11:00 20,5 C 49 % 1019,5 hPa 0,0 l/m 5,4 km/h (1 Bft) NW 9,4 C 20,5 C 13,3 km/h (3 Bft)
26.05.2017 12:00 21,5 C 48 % 1019,3 hPa 0,0 l/m 5,4 km/h (2 Bft) W-NW 10,0 C 21,5 C 12,5 km/h (2 Bft)
26.05.2017 13:00 22,9 C 44 % 1018,8 hPa 0,0 l/m 4,6 km/h (1 Bft) W-NW 10,0 C 22,9 C 11,3 km/h (2 Bft)
26.05.2017 14:00 23,7 C 43 % 1018,2 hPa 0,0 l/m 4,6 km/h (1 Bft) S 10,5 C 23,7 C 13,0 km/h (3 Bft)
26.05.2017 15:00 24,4 C 41 % 1017,6 hPa 0,0 l/m 4,9 km/h (1 Bft) NW 10,4 C 24,4 C 13,2 km/h (3 Bft)
26.05.2017 16:00 24,9 C 40 % 1017,2 hPa 0,0 l/m 4,1 km/h (1 Bft) S-SW 10,5 C 24,9 C 12,4 km/h (2 Bft)
26.05.2017 17:00 24,5 C 40 % 1016,8 hPa 0,0 l/m 5,2 km/h (1 Bft) NW 10,2 C 24,5 C 11,8 km/h (2 Bft)
26.05.2017 18:00 24,0 C 41 % 1016,7 hPa 0,0 l/m 4,2 km/h (1 Bft) N-NW 10,0 C 24,0 C 10,6 km/h (2 Bft)
26.05.2017 19:00 22,7 C 44 % 1016,7 hPa 0,0 l/m 4,1 km/h (1 Bft) W 9,8 C 22,7 C 12,3 km/h (2 Bft)
26.05.2017 20:00 21,2 C 48 % 1016,8 hPa 0,0 l/m 2,6 km/h (1 Bft) W-SW 9,9 C 21,2 C 7,6 km/h (2 Bft)
26.05.2017 21:00 19,3 C 56 % 1017,2 hPa 0,0 l/m 0,8 km/h (0 Bft) SW 10,2 C 19,3 C 3,9 km/h (1 Bft)
26.05.2017 22:00 16,3 C 69 % 1017,9 hPa 0,0 l/m 0,4 km/h (0 Bft) NW 10,5 C 16,3 C 2,4 km/h (1 Bft)
26.05.2017 23:00 13,9 C 77 % 1018,2 hPa 0,0 l/m 0,0 km/h (0 Bft) NW 9,9 C 13,9 C 0,1 km/h (0 Bft)
27.05.2017 00:00 12,3 C 82 % 1018,3 hPa 0,0 l/m 0,0 km/h (0 Bft) NW 9,3 C 12,3 C 0,2 km/h (0 Bft)
27.05.2017 01:00 10,7 C 86 % 1018,1 hPa 0,0 l/m 0,0 km/h (0 Bft) NW 8,4 C 10,7 C 0,0 km/h (0 Bft)
27.05.2017 02:00 9,5 C 89 % 1018,0 hPa 0,0 l/m 0,0 km/h (0 Bft) NW 7,8 C 9,5 C 0,0 km/h (0 Bft)
27.05.2017 03:00 8,7 C 90 % 1017,9 hPa 0,0 l/m 0,0 km/h (0 Bft) NW 7,2 C 8,7 C 0,0 km/h (0 Bft)
27.05.2017 04:00 7,8 C 92 % 1018,0 hPa 0,0 l/m 0,0 km/h (0 Bft) NW 6,6 C 7,8 C 0,0 km/h (0 Bft)
27.05.2017 05:00 7,2 C 94 % 1018,4 hPa 0,0 l/m 0,0 km/h (0 Bft) NW 6,3 C 7,2 C 0,3 km/h (0 Bft)
27.05.2017 06:00 7,1 C 94 % 1018,5 hPa 0,0 l/m 0,0 km/h (0 Bft) NW 6,2 C 7,1 C 0,0 km/h (0 Bft)
27.05.2017 07:00 10,0 C 89 % 1018,8 hPa 0,0 l/m 0,3 km/h (0 Bft) NW 8,3 C 10,0 C 1,6 km/h (1 Bft)
27.05.2017 08:00 16,0 C 73 % 1018,8 hPa 0,0 l/m 1,3 km/h (1 Bft) NW 11,1 C 16,0 C 3,3 km/h (1 Bft)
27.05.2017 09:00 20,4 C 55 % 1018,6 hPa 0,0 l/m 1,9 km/h (1 Bft) SW 11,1 C 20,4 C 5,2 km/h (1 Bft)
27.05.2017 10:00 22,4 C 46 % 1018,4 hPa 0,0 l/m 2,8 km/h (1 Bft) SW 10,3 C 22,4 C 7,2 km/h (2 Bft)
27.05.2017 11:00 24,4 C 44 % 1018,2 hPa 0,0 l/m 2,6 km/h (1 Bft) W-NW 11,2 C 24,4 C 6,7 km/h (2 Bft)
27.05.2017 12:00 25,6 C 39 % 1018,0 hPa 0,0 l/m 2,9 km/h (1 Bft) NW 10,5 C 25,6 C 5,0 km/h (1 Bft)
27.05.2017 13:00 26,6 C 35 % 1017,6 hPa 0,0 l/m 3,8 km/h (1 Bft) NO 9,7 C 26,6 C 6,8 km/h (2 Bft)
27.05.2017 14:00 27,7 C 32 % 1017,1 hPa 0,0 l/m 3,7 km/h (1 Bft) NO 9,3 C 27,7 C 6,2 km/h (2 Bft)
27.05.2017 15:00 28,6 C 30 % 1016,7 hPa 0,0 l/m 3,1 km/h (1 Bft) N-NW 9,1 C 28,6 C 5,6 km/h (2 Bft)
27.05.2017 16:00 29,1 C 29 % 1016,4 hPa 0,0 l/m 2,8 km/h (1 Bft) W-NW 9,0 C 29,1 C 5,5 km/h (2 Bft)
27.05.2017 17:00 29,1 C 29 % 1016,1 hPa 0,0 l/m 2,9 km/h (1 Bft) N-NW 9,3 C 29,1 C 5,7 km/h (2 Bft)
27.05.2017 18:00 28,4 C 31 % 1016,0 hPa 0,0 l/m 2,7 km/h (1 Bft) NW 9,5 C 28,4 C 6,4 km/h (2 Bft)
27.05.2017 19:00 27,0 C 34 % 1016,0 hPa 0,0 l/m 1,9 km/h (1 Bft) W 9,7 C 27,0 C 5,7 km/h (2 Bft)
27.05.2017 20:00 24,6 C 42 % 1016,6 hPa 0,0 l/m 0,5 km/h (0 Bft) SW 10,8 C 24,6 C 2,3 km/h (1 Bft)
27.05.2017 21:00 20,6 C 57 % 1017,1 hPa 0,0 l/m 0,0 km/h (0 Bft) SW 11,7 C 20,6 C 0,1 km/h (0 Bft)
27.05.2017 22:00 17,4 C 69 % 1017,8 hPa 0,0 l/m 0,0 km/h (0 Bft) SW 11,7 C 17,4 C 0,4 km/h (0 Bft)
27.05.2017 23:00 15,4 C 76 % 1018,1 hPa 0,0 l/m 0,0 km/h (0 Bft) SW 11,2 C 15,4 C 0,4 km/h (0 Bft)
28.05.2017 00:00 14,2 C 80 % 1018,4 hPa 0,0 l/m 0,0 km/h (0 Bft) SW 10,7 C 14,2 C 0,0 km/h (0 Bft)
28.05.2017 01:00 13,1 C 83 % 1018,4 hPa 0,0 l/m 0,0 km/h (0 Bft) SW 10,3 C 13,1 C 0,3 km/h (0 Bft)
28.05.2017 02:00 12,1 C 86 % 1018,3 hPa 0,0 l/m 0,0 km/h (0 Bft) SW 9,8 C 12,1 C 0,0 km/h (0 Bft)
28.05.2017 03:00 11,4 C 88 % 1018,2 hPa 0,0 l/m 0,0 km/h (0 Bft) SW 9,4 C 11,4 C 0,0 km/h (0 Bft)
28.05.2017 04:00 10,7 C 90 % 1018,0 hPa 0,0 l/m 0,0 km/h (0 Bft) SW 9,1 C 10,7 C 0,0 km/h (0 Bft)
28.05.2017 05:00 10,2 C 91 % 1017,9 hPa 0,0 l/m 0,0 km/h (0 Bft) SW 8,8 C 10,2 C 0,0 km/h (0 Bft)
28.05.2017 06:00 10,2 C 92 % 1018,0 hPa 0,0 l/m 0,0 km/h (0 Bft) SW 8,9 C 10,2 C 0,0 km/h (0 Bft)
28.05.2017 07:00 13,3 C 85 % 1018,0 hPa 0,0 l/m 0,0 km/h (0 Bft) SW 10,9 C 13,3 C 0,0 km/h (0 Bft)
28.05.2017 08:00 19,5 C 69 % 1017,9 hPa 0,0 l/m 0,1 km/h (0 Bft) SW 13,6 C 19,5 C 0,5 km/h (0 Bft)
28.05.2017 09:00 24,0 C 58 % 1017,7 hPa 0,0 l/m 1,6 km/h (1 Bft) W-NW 15,2 C 24,0 C 4,3 km/h (1 Bft)
28.05.2017 10:00 26,5 C 46 % 1017,3 hPa 0,0 l/m 3,9 km/h (1 Bft) NO 13,9 C 26,5 C 8,6 km/h (2 Bft)
28.05.2017 11:00 28,1 C 41 % 1017,1 hPa 0,0 l/m 3,5 km/h (1 Bft) NO 13,7 C 28,1 C 7,4 km/h (2 Bft)
28.05.2017 12:00 28,6 C 40 % 1017,0 hPa 0,0 l/m 3,4 km/h (1 Bft) O-NO 13,6 C 28,6 C 6,2 km/h (2 Bft)
28.05.2017 13:00 26,6 C 54 % 1016,8 hPa 0,5 l/m 3,3 km/h (1 Bft) NO 15,8 C 26,6 C 8,3 km/h (2 Bft)
28.05.2017 14:00 23,9 C 76 % 1016,5 hPa 0,0 l/m 2,0 km/h (1 Bft) NO 19,4 C 23,9 C 4,7 km/h (1 Bft)
28.05.2017 15:00 20,5 C 84 % 1017,1 hPa 1,8 l/m 2,7 km/h (1 Bft) O 17,6 C 20,5 C 7,1 km/h (2 Bft)
28.05.2017 16:00 20,8 C 86 % 1017,0 hPa 0,3 l/m 1,5 km/h (1 Bft) O 18,3 C 20,8 C 4,3 km/h (1 Bft)
28.05.2017 17:00 25,9 C 63 % 1016,3 hPa 0,0 l/m 2,3 km/h (1 Bft) O 18,2 C 25,9 C 4,3 km/h (1 Bft)
28.05.2017 18:00 26,7 C 59 % 1016,1 hPa 0,0 l/m 1,5 km/h (1 Bft) O 18,0 C 26,7 C 3,3 km/h (1 Bft)
28.05.2017 19:00 25,0 C 69 % 1015,9 hPa 0,0 l/m 0,6 km/h (0 Bft) O 18,9 C 25,0 C 2,5 km/h (1 Bft)
28.05.2017 20:00 22,5 C 82 % 1016,0 hPa 0,0 l/m 0,4 km/h (0 Bft) O 19,2 C 22,5 C 1,5 km/h (1 Bft)
28.05.2017 21:00 19,7 C 88 % 1016,2 hPa 0,0 l/m 0,1 km/h (0 Bft) O 17,6 C 19,7 C 1,1 km/h (0 Bft)
28.05.2017 22:00 17,5 C 91 % 1016,6 hPa 0,0 l/m 0,1 km/h (0 Bft) O 16,0 C 17,5 C 0,5 km/h (0 Bft)
28.05.2017 23:00 16,3 C 93 % 1016,6 hPa 0,0 l/m 0,0 km/h (0 Bft) O 15,1 C 16,3 C 0,3 km/h (0 Bft)
Min-Datum _ 22.05.17 27.05.17 22.05.17 - 28.05.17 - 22.05.17 22.05.17 28.05.17
_ Min-Zeit 06:01 17:11 19:30 - 23:10 - 06:01 06:01 23:10
Minimum _ 4,8 C 26 % 1015,0 hPa - 0,0 km/h (0 Bft) - 3,8 C 4,8 C 0,0 km/h (0 Bft)
Max-Datum _ 28.05.17 26.05.17 24.05.17 28.05.17 26.05.17 - 28.05.17 28.05.17 26.05.17
_ Max-Zeit 13:10 07:15 08:35 15:20 12:10 - 14:05 13:10 12:25
Maximum _ 29,4 C 97 % 1022,9 hPa 1,8 l/m 9,7 km/h
W-NW (2 Bft)
- 20,4 C 29,4 C 24,1 km/h
W-NW (4 Bft)
Durchschnitt _ 17,1 C 66 % 1018,6 hPa #2,5 l/m 1,8 km/h (1 Bft) SW 9,9 C 17,1 C 4,7 km/h (1 Bft)